sensor_id;sensor_type;location;lat;lon;timestamp;pressure;altitude;pressure_sealevel;temperature
65316;BMP280;51920;53.952;10.292;2023-06-24T00:00:05;101892.91;;;16.21
65316;BMP280;51920;53.952;10.292;2023-06-24T00:02:38;101884.31;;;16.05
65316;BMP280;51920;53.952;10.292;2023-06-24T00:05:08;101877.69;;;16.02
65316;BMP280;51920;53.952;10.292;2023-06-24T00:07:38;101867.13;;;15.86
65316;BMP280;51920;53.952;10.292;2023-06-24T00:10:12;101890.19;;;15.93
65316;BMP280;51920;53.952;10.292;2023-06-24T00:12:41;101872.97;;;15.85
65316;BMP280;51920;53.952;10.292;2023-06-24T00:15:08;101872.56;;;15.83
65316;BMP280;51920;53.952;10.292;2023-06-24T00:17:39;101856.94;;;15.73
65316;BMP280;51920;53.952;10.292;2023-06-24T00:20:07;101849.56;;;15.69
65316;BMP280;51920;53.952;10.292;2023-06-24T00:22:38;101860.84;;;15.68
65316;BMP280;51920;53.952;10.292;2023-06-24T00:25:10;101874.53;;;15.79
65316;BMP280;51920;53.952;10.292;2023-06-24T00:27:37;101876.91;;;15.77
65316;BMP280;51920;53.952;10.292;2023-06-24T00:30:04;101882.34;;;15.73
65316;BMP280;51920;53.952;10.292;2023-06-24T00:32:31;101878.81;;;15.65
65316;BMP280;51920;53.952;10.292;2023-06-24T00:34:58;101887.78;;;15.66
65316;BMP280;51920;53.952;10.292;2023-06-24T00:37:27;101886.97;;;15.58
65316;BMP280;51920;53.952;10.292;2023-06-24T00:39:54;101886.19;;;15.61
65316;BMP280;51920;53.952;10.292;2023-06-24T00:42:20;101891.25;;;15.56
65316;BMP280;51920;53.952;10.292;2023-06-24T00:44:48;101891.25;;;15.52
65316;BMP280;51920;53.952;10.292;2023-06-24T00:47:16;101884.59;;;15.46
65316;BMP280;51920;53.952;10.292;2023-06-24T00:49:45;101879.13;;;15.42
65316;BMP280;51920;53.952;10.292;2023-06-24T00:52:12;101859.91;;;15.21
65316;BMP280;51920;53.952;10.292;2023-06-24T00:54:45;101868.84;;;15.14
65316;BMP280;51920;53.952;10.292;2023-06-24T00:57:12;101893.03;;;15.12
65316;BMP280;51920;53.952;10.292;2023-06-24T00:59:42;101867.19;;;14.88
65316;BMP280;51920;53.952;10.292;2023-06-24T01:02:11;101874.19;;;14.86
65316;BMP280;51920;53.952;10.292;2023-06-24T01:04:38;101867.88;;;14.74
65316;BMP280;51920;53.952;10.292;2023-06-24T01:07:09;101883.13;;;14.86
65316;BMP280;51920;53.952;10.292;2023-06-24T01:09:36;101889.81;;;14.89
65316;BMP280;51920;53.952;10.292;2023-06-24T01:12:02;101903.03;;;14.87
65316;BMP280;51920;53.952;10.292;2023-06-24T01:14:30;101902.19;;;14.79
65316;BMP280;51920;53.952;10.292;2023-06-24T01:17:18;101906.84;;;14.71
65316;BMP280;51920;53.952;10.292;2023-06-24T01:20:08;101920.84;;;14.73
65316;BMP280;51920;53.952;10.292;2023-06-24T01:28:14;101920.78;;;14.59
65316;BMP280;51920;53.952;10.292;2023-06-24T01:33:24;101925.44;;;14.55
65316;BMP280;51920;53.952;10.292;2023-06-24T01:35:54;101923.06;;;14.53
65316;BMP280;51920;53.952;10.292;2023-06-24T01:38:34;101922.31;;;14.53
65316;BMP280;51920;53.952;10.292;2023-06-24T01:41:03;101916.03;;;14.49
65316;BMP280;51920;53.952;10.292;2023-06-24T01:43:32;101918.34;;;14.47
65316;BMP280;51920;53.952;10.292;2023-06-24T01:46:04;101917.19;;;14.48
65316;BMP280;51920;53.952;10.292;2023-06-24T01:48:35;101919.94;;;14.48
65316;BMP280;51920;53.952;10.292;2023-06-24T01:51:13;101927.72;;;14.49
65316;BMP280;51920;53.952;10.292;2023-06-24T01:53:44;101915.19;;;14.41
65316;BMP280;51920;53.952;10.292;2023-06-24T01:56:15;101924.56;;;14.44
65316;BMP280;51920;53.952;10.292;2023-06-24T01:58:45;101920.28;;;14.43
65316;BMP280;51920;53.952;10.292;2023-06-24T02:01:13;101900.19;;;14.21
65316;BMP280;51920;53.952;10.292;2023-06-24T02:03:43;101915.84;;;14.31
65316;BMP280;51920;53.952;10.292;2023-06-24T02:06:11;101906.78;;;14.16
65316;BMP280;51920;53.952;10.292;2023-06-24T02:08:40;101895.41;;;14.07
65316;BMP280;51920;53.952;10.292;2023-06-24T02:11:12;101905.19;;;14.15
65316;BMP280;51920;53.952;10.292;2023-06-24T02:13:43;101910.25;;;14.13
65316;BMP280;51920;53.952;10.292;2023-06-24T02:16:16;101880.50;;;13.97
65316;BMP280;51920;53.952;10.292;2023-06-24T02:18:44;101911.06;;;14.17
65316;BMP280;51920;53.952;10.292;2023-06-24T02:21:11;101922.81;;;14.21
65316;BMP280;51920;53.952;10.292;2023-06-24T02:23:39;101926.59;;;14.13
65316;BMP280;51920;53.952;10.292;2023-06-24T02:26:06;101919.63;;;14.12
65316;BMP280;51920;53.952;10.292;2023-06-24T02:28:34;101919.53;;;14.05
65316;BMP280;51920;53.952;10.292;2023-06-24T02:31:02;101942.22;;;14.16
65316;BMP280;51920;53.952;10.292;2023-06-24T02:33:29;101936.69;;;14.09
65316;BMP280;51920;53.952;10.292;2023-06-24T02:35:57;101933.16;;;14.05
65316;BMP280;51920;53.952;10.292;2023-06-24T02:38:28;101947.63;;;14.12
65316;BMP280;51920;53.952;10.292;2023-06-24T02:40:57;101920.59;;;13.96
65316;BMP280;51920;53.952;10.292;2023-06-24T02:43:25;101942.13;;;14.09
65316;BMP280;51920;53.952;10.292;2023-06-24T02:45:55;101947.22;;;14.10
65316;BMP280;51920;53.952;10.292;2023-06-24T02:48:23;101924.88;;;13.98
65316;BMP280;51920;53.952;10.292;2023-06-24T02:50:51;101944.06;;;14.05
65316;BMP280;51920;53.952;10.292;2023-06-24T02:53:18;101945.16;;;14.00
65316;BMP280;51920;53.952;10.292;2023-06-24T02:55:47;101949.88;;;14.03
65316;BMP280;51920;53.952;10.292;2023-06-24T02:58:14;101936.94;;;13.93
65316;BMP280;51920;53.952;10.292;2023-06-24T03:01:04;101934.94;;;13.93
65316;BMP280;51920;53.952;10.292;2023-06-24T03:03:48;101946.34;;;14.03
65316;BMP280;51920;53.952;10.292;2023-06-24T03:06:16;101950.25;;;14.02
65316;BMP280;51920;53.952;10.292;2023-06-24T03:08:45;101942.38;;;13.93
65316;BMP280;51920;53.952;10.292;2023-06-24T03:11:13;101945.09;;;13.93
65316;BMP280;51920;53.952;10.292;2023-06-24T03:13:41;101953.31;;;14.00
65316;BMP280;51920;53.952;10.292;2023-06-24T03:16:18;101953.72;;;13.99
65316;BMP280;51920;53.952;10.292;2023-06-24T03:19:06;101952.97;;;14.02
65316;BMP280;51920;53.952;10.292;2023-06-24T03:21:34;101950.66;;;14.04
65316;BMP280;51920;53.952;10.292;2023-06-24T03:24:10;101948.28;;;14.02
65316;BMP280;51920;53.952;10.292;2023-06-24T03:26:39;101941.97;;;13.94
65316;BMP280;51920;53.952;10.292;2023-06-24T03:29:11;101925.56;;;13.87
65316;BMP280;51920;53.952;10.292;2023-06-24T03:31:49;101937.28;;;13.91
65316;BMP280;51920;53.952;10.292;2023-06-24T03:34:21;101931.78;;;13.88
65316;BMP280;51920;53.952;10.292;2023-06-24T03:36:49;101956.53;;;14.06
65316;BMP280;51920;53.952;10.292;2023-06-24T03:39:20;101934.94;;;13.93
65316;BMP280;51920;53.952;10.292;2023-06-24T03:41:49;101945.53;;;13.99
65316;BMP280;51920;53.952;10.292;2023-06-24T03:44:20;101936.94;;;13.96
65316;BMP280;51920;53.952;10.292;2023-06-24T03:46:50;101931.91;;;13.99
65316;BMP280;51920;53.952;10.292;2023-06-24T03:49:20;101957.00;;;14.18
65316;BMP280;51920;53.952;10.292;2023-06-24T03:51:49;101961.09;;;14.35
65316;BMP280;51920;53.952;10.292;2023-06-24T03:54:21;101949.38;;;14.31
65316;BMP280;51920;53.952;10.292;2023-06-24T03:56:52;101945.47;;;14.32
65316;BMP280;51920;53.952;10.292;2023-06-24T03:59:24;101958.81;;;14.45
65316;BMP280;51920;53.952;10.292;2023-06-24T04:01:54;101952.59;;;14.44
65316;BMP280;51920;53.952;10.292;2023-06-24T04:04:21;101955.81;;;14.57
65316;BMP280;51920;53.952;10.292;2023-06-24T04:06:50;101944.91;;;14.53
65316;BMP280;51920;53.952;10.292;2023-06-24T04:09:18;101969.22;;;14.76
65316;BMP280;51920;53.952;10.292;2023-06-24T04:11:45;101979.50;;;14.97
65316;BMP280;51920;53.952;10.292;2023-06-24T04:14:19;101942.38;;;14.86
65316;BMP280;51920;53.952;10.292;2023-06-24T04:16:46;101957.34;;;15.06
65316;BMP280;51920;53.952;10.292;2023-06-24T04:19:14;101981.69;;;15.33
65316;BMP280;51920;53.952;10.292;2023-06-24T04:21:50;101955.56;;;15.32
65316;BMP280;51920;53.952;10.292;2023-06-24T04:24:19;101936.81;;;15.34
65316;BMP280;51920;53.952;10.292;2023-06-24T04:26:52;101958.78;;;15.55
65316;BMP280;51920;53.952;10.292;2023-06-24T04:29:21;101935.38;;;15.54
65316;BMP280;51920;53.952;10.292;2023-06-24T04:31:51;101935.41;;;15.68
65316;BMP280;51920;53.952;10.292;2023-06-24T04:34:21;101941.66;;;15.80
65316;BMP280;51920;53.952;10.292;2023-06-24T04:36:48;101936.19;;;15.83
65316;BMP280;51920;53.952;10.292;2023-06-24T04:39:19;101950.69;;;16.05
65316;BMP280;51920;53.952;10.292;2023-06-24T04:41:52;101940.97;;;16.15
65316;BMP280;51920;53.952;10.292;2023-06-24T04:44:21;101925.34;;;16.08
65316;BMP280;51920;53.952;10.292;2023-06-24T04:46:58;101958.94;;;16.41
65316;BMP280;51920;53.952;10.292;2023-06-24T04:49:28;101958.19;;;16.48
65316;BMP280;51920;53.952;10.292;2023-06-24T04:52:00;101952.69;;;16.62
65316;BMP280;51920;53.952;10.292;2023-06-24T04:54:33;101969.84;;;16.70
65316;BMP280;51920;53.952;10.292;2023-06-24T04:57:09;101990.56;;;16.99
65316;BMP280;51920;53.952;10.292;2023-06-24T04:59:38;101944.81;;;16.82
65316;BMP280;51920;53.952;10.292;2023-06-24T05:02:07;101976.81;;;17.07
65316;BMP280;51920;53.952;10.292;2023-06-24T05:04:36;101988.06;;;17.37
65316;BMP280;51920;53.952;10.292;2023-06-24T05:07:03;101970.88;;;17.40
65316;BMP280;51920;53.952;10.292;2023-06-24T05:09:32;101957.16;;;17.40
65316;BMP280;51920;53.952;10.292;2023-06-24T05:12:09;101962.59;;;17.51
65316;BMP280;51920;53.952;10.292;2023-06-24T05:14:36;101957.88;;;17.59
65316;BMP280;51920;53.952;10.292;2023-06-24T05:17:04;101969.50;;;17.77
65316;BMP280;51920;53.952;10.292;2023-06-24T05:19:31;101945.59;;;17.81
65316;BMP280;51920;53.952;10.292;2023-06-24T05:22:03;101969.25;;;18.13
65316;BMP280;51920;53.952;10.292;2023-06-24T05:24:32;101935.63;;;18.05
65316;BMP280;51920;53.952;10.292;2023-06-24T05:27:03;101937.78;;;18.28
65316;BMP280;51920;53.952;10.292;2023-06-24T05:29:31;101946.25;;;18.45
65316;BMP280;51920;53.952;10.292;2023-06-24T05:31:58;101952.25;;;18.74
65316;BMP280;51920;53.952;10.292;2023-06-24T05:34:26;101966.44;;;19.03
65316;BMP280;51920;53.952;10.292;2023-06-24T05:36:58;101967.78;;;19.22
65316;BMP280;51920;53.952;10.292;2023-06-24T05:39:25;101952.97;;;19.12
65316;BMP280;51920;53.952;10.292;2023-06-24T05:41:52;101965.03;;;19.22
65316;BMP280;51920;53.952;10.292;2023-06-24T05:44:21;101963.22;;;19.39
65316;BMP280;51920;53.952;10.292;2023-06-24T05:46:49;101966.06;;;19.62
65316;BMP280;51920;53.952;10.292;2023-06-24T05:49:19;101977.91;;;19.83
65316;BMP280;51920;53.952;10.292;2023-06-24T05:51:52;101983.84;;;20.08
65316;BMP280;51920;53.952;10.292;2023-06-24T05:54:41;102006.31;;;20.27
65316;BMP280;51920;53.952;10.292;2023-06-24T05:57:17;102006.47;;;19.92
65316;BMP280;51920;53.952;10.292;2023-06-24T05:59:44;101969.19;;;19.64
65316;BMP280;51920;53.952;10.292;2023-06-24T06:02:21;101985.31;;;19.62
65316;BMP280;51920;53.952;10.292;2023-06-24T06:04:53;101982.47;;;19.08
65316;BMP280;51920;53.952;10.292;2023-06-24T06:07:36;101995.97;;;18.95
65316;BMP280;51920;53.952;10.292;2023-06-24T06:10:06;101998.28;;;18.97
65316;BMP280;51920;53.952;10.292;2023-06-24T06:12:38;101992.28;;;19.09
65316;BMP280;51920;53.952;10.292;2023-06-24T06:15:08;102016.31;;;18.98
65316;BMP280;51920;53.952;10.292;2023-06-24T06:17:38;101993.69;;;18.87
65316;BMP280;51920;53.952;10.292;2023-06-24T06:20:15;101993.38;;;18.77
65316;BMP280;51920;53.952;10.292;2023-06-24T06:22:50;101987.22;;;18.66
65316;BMP280;51920;53.952;10.292;2023-06-24T06:25:23;101979.97;;;18.87
65316;BMP280;51920;53.952;10.292;2023-06-24T06:27:55;102004.91;;;19.34
65316;BMP280;51920;53.952;10.292;2023-06-24T06:30:43;102003.56;;;20.03
65316;BMP280;51920;53.952;10.292;2023-06-24T06:33:13;102002.31;;;20.08
65316;BMP280;51920;53.952;10.292;2023-06-24T06:35:46;101991.59;;;19.63
65316;BMP280;51920;53.952;10.292;2023-06-24T06:38:35;102027.06;;;19.81
65316;BMP280;51920;53.952;10.292;2023-06-24T06:41:06;102035.34;;;20.04
65316;BMP280;51920;53.952;10.292;2023-06-24T06:43:37;101995.53;;;19.89
65316;BMP280;51920;53.952;10.292;2023-06-24T06:46:06;102005.25;;;20.21
65316;BMP280;51920;53.952;10.292;2023-06-24T06:48:47;102019.97;;;20.34
65316;BMP280;51920;53.952;10.292;2023-06-24T06:51:14;101994.19;;;20.24
65316;BMP280;51920;53.952;10.292;2023-06-24T06:53:42;102013.63;;;20.37
65316;BMP280;51920;53.952;10.292;2023-06-24T06:56:23;101991.03;;;20.89
65316;BMP280;51920;53.952;10.292;2023-06-24T06:58:53;102016.34;;;21.20
65316;BMP280;51920;53.952;10.292;2023-06-24T07:01:30;102005.50;;;21.13
65316;BMP280;51920;53.952;10.292;2023-06-24T07:03:59;102007.25;;;21.03
65316;BMP280;51920;53.952;10.292;2023-06-24T07:06:37;101997.88;;;20.81
65316;BMP280;51920;53.952;10.292;2023-06-24T07:09:22;101994.72;;;21.02
65316;BMP280;51920;53.952;10.292;2023-06-24T07:14:48;102008.75;;;21.08
65316;BMP280;51920;53.952;10.292;2023-06-24T07:17:35;102005.88;;;21.51
65316;BMP280;51920;53.952;10.292;2023-06-24T07:20:10;101995.44;;;21.92
65316;BMP280;51920;53.952;10.292;2023-06-24T07:22:46;102002.69;;;22.02
65316;BMP280;51920;53.952;10.292;2023-06-24T07:25:15;102043.47;;;22.11
65316;BMP280;51920;53.952;10.292;2023-06-24T07:27:43;102035.72;;;21.89
65316;BMP280;51920;53.952;10.292;2023-06-24T07:30:10;102034.09;;;22.08
65316;BMP280;51920;53.952;10.292;2023-06-24T07:32:38;102031.50;;;22.01
65316;BMP280;51920;53.952;10.292;2023-06-24T07:35:08;102029.31;;;21.60
65316;BMP280;51920;53.952;10.292;2023-06-24T07:37:35;102032.84;;;22.25
65316;BMP280;51920;53.952;10.292;2023-06-24T07:40:02;102034.47;;;22.98
65316;BMP280;51920;53.952;10.292;2023-06-24T07:42:30;102039.78;;;23.05
65316;BMP280;51920;53.952;10.292;2023-06-24T07:44:56;102037.72;;;23.22
65316;BMP280;51920;53.952;10.292;2023-06-24T07:47:23;102041.03;;;22.87
65316;BMP280;51920;53.952;10.292;2023-06-24T07:49:50;102028.66;;;23.47
65316;BMP280;51920;53.952;10.292;2023-06-24T07:52:16;102027.88;;;23.59
65316;BMP280;51920;53.952;10.292;2023-06-24T07:54:43;102044.66;;;23.26
65316;BMP280;51920;53.952;10.292;2023-06-24T07:57:10;102041.16;;;23.38
65316;BMP280;51920;53.952;10.292;2023-06-24T07:59:37;102026.66;;;22.80
65316;BMP280;51920;53.952;10.292;2023-06-24T08:02:03;102040.41;;;22.96
65316;BMP280;51920;53.952;10.292;2023-06-24T08:04:30;102027.63;;;22.73
65316;BMP280;51920;53.952;10.292;2023-06-24T08:06:57;102037.91;;;23.02
65316;BMP280;51920;53.952;10.292;2023-06-24T08:09:23;102029.69;;;22.56
65316;BMP280;51920;53.952;10.292;2023-06-24T08:11:50;102035.06;;;22.76
65316;BMP280;51920;53.952;10.292;2023-06-24T08:14:17;102033.38;;;23.08
65316;BMP280;51920;53.952;10.292;2023-06-24T08:16:44;102018.75;;;22.94
65316;BMP280;51920;53.952;10.292;2023-06-24T08:19:10;102029.53;;;23.31
65316;BMP280;51920;53.952;10.292;2023-06-24T08:21:37;102044.38;;;23.50
65316;BMP280;51920;53.952;10.292;2023-06-24T08:24:05;102043.13;;;23.25
65316;BMP280;51920;53.952;10.292;2023-06-24T08:26:31;102019.94;;;23.35
65316;BMP280;51920;53.952;10.292;2023-06-24T08:28:58;102029.19;;;23.67
65316;BMP280;51920;53.952;10.292;2023-06-24T08:31:27;102031.63;;;24.25
65316;BMP280;51920;53.952;10.292;2023-06-24T08:33:54;102030.16;;;24.55
65316;BMP280;51920;53.952;10.292;2023-06-24T08:36:38;102003.00;;;24.72
65316;BMP280;51920;53.952;10.292;2023-06-24T08:39:05;102023.38;;;25.09
65316;BMP280;51920;53.952;10.292;2023-06-24T08:41:32;102023.94;;;25.35
65316;BMP280;51920;53.952;10.292;2023-06-24T08:43:59;102027.94;;;25.34
65316;BMP280;51920;53.952;10.292;2023-06-24T08:46:26;102003.75;;;25.35
65316;BMP280;51920;53.952;10.292;2023-06-24T08:48:59;102027.75;;;25.78
65316;BMP280;51920;53.952;10.292;2023-06-24T08:51:29;102033.19;;;25.42
65316;BMP280;51920;53.952;10.292;2023-06-24T08:53:58;102007.84;;;25.12
65316;BMP280;51920;53.952;10.292;2023-06-24T08:56:26;102007.00;;;24.71
65316;BMP280;51920;53.952;10.292;2023-06-24T09:02:43;102003.53;;;24.58
65316;BMP280;51920;53.952;10.292;2023-06-24T09:05:12;102010.78;;;24.86
65316;BMP280;51920;53.952;10.292;2023-06-24T09:07:43;102004.94;;;24.84
65316;BMP280;51920;53.952;10.292;2023-06-24T09:10:10;102029.44;;;25.17
65316;BMP280;51920;53.952;10.292;2023-06-24T09:12:50;102012.63;;;24.58
65316;BMP280;51920;53.952;10.292;2023-06-24T09:15:20;102016.59;;;24.79
65316;BMP280;51920;53.952;10.292;2023-06-24T09:17:47;102024.69;;;24.43
65316;BMP280;51920;53.952;10.292;2023-06-24T09:20:14;102034.88;;;24.99
65316;BMP280;51920;53.952;10.292;2023-06-24T09:22:40;102026.03;;;25.22
65316;BMP280;51920;53.952;10.292;2023-06-24T09:25:08;102026.66;;;26.03
65316;BMP280;51920;53.952;10.292;2023-06-24T09:27:37;102025.00;;;25.97
65316;BMP280;51920;53.952;10.292;2023-06-24T09:30:25;102018.16;;;26.44
65316;BMP280;51920;53.952;10.292;2023-06-24T09:32:53;102004.31;;;25.89
65316;BMP280;51920;53.952;10.292;2023-06-24T09:35:25;102005.97;;;25.77
65316;BMP280;51920;53.952;10.292;2023-06-24T09:37:56;102025.00;;;25.97
65316;BMP280;51920;53.952;10.292;2023-06-24T09:40:24;102028.78;;;26.54
65316;BMP280;51920;53.952;10.292;2023-06-24T09:42:55;102009.53;;;26.14
65316;BMP280;51920;53.952;10.292;2023-06-24T09:45:26;102005.22;;;26.13
65316;BMP280;51920;53.952;10.292;2023-06-24T09:47:54;101988.28;;;25.16
65316;BMP280;51920;53.952;10.292;2023-06-24T09:50:22;101980.84;;;25.03
65316;BMP280;51920;53.952;10.292;2023-06-24T09:52:49;101991.34;;;25.76
65316;BMP280;51920;53.952;10.292;2023-06-24T09:55:18;101984.34;;;25.35
65316;BMP280;51920;53.952;10.292;2023-06-24T09:57:50;102002.22;;;25.34
65316;BMP280;51920;53.952;10.292;2023-06-24T10:00:23;101981.16;;;25.82
65316;BMP280;51920;53.952;10.292;2023-06-24T10:02:53;101992.22;;;26.47
65316;BMP280;51920;53.952;10.292;2023-06-24T10:05:26;101971.91;;;26.22
65316;BMP280;51920;53.952;10.292;2023-06-24T10:08:04;101983.09;;;26.55
65316;BMP280;51920;53.952;10.292;2023-06-24T10:10:34;102010.91;;;26.98
65316;BMP280;51920;53.952;10.292;2023-06-24T10:13:18;101987.31;;;26.84
65316;BMP280;51920;53.952;10.292;2023-06-24T10:15:45;101987.91;;;26.55
65316;BMP280;51920;53.952;10.292;2023-06-24T10:21:12;101957.25;;;25.76
65316;BMP280;51920;53.952;10.292;2023-06-24T10:23:52;101964.03;;;25.56
65316;BMP280;51920;53.952;10.292;2023-06-24T10:26:29;101955.22;;;25.40
65316;BMP280;51920;53.952;10.292;2023-06-24T10:42:37;101986.75;;;25.92
65316;BMP280;51920;53.952;10.292;2023-06-24T10:45:18;101965.66;;;26.46
65316;BMP280;51920;53.952;10.292;2023-06-24T10:47:47;101940.31;;;26.62
65316;BMP280;51920;53.952;10.292;2023-06-24T10:50:21;101945.88;;;26.86
65316;BMP280;51920;53.952;10.292;2023-06-24T10:52:52;101958.38;;;27.24
65316;BMP280;51920;53.952;10.292;2023-06-24T10:55:25;101968.59;;;26.94
65316;BMP280;51920;53.952;10.292;2023-06-24T10:58:07;101957.31;;;27.60
65316;BMP280;51920;53.952;10.292;2023-06-24T11:00:39;101955.72;;;27.29
65316;BMP280;51920;53.952;10.292;2023-06-24T11:03:15;101955.44;;;27.66
65316;BMP280;51920;53.952;10.292;2023-06-24T11:05:44;101966.19;;;26.77
65316;BMP280;51920;53.952;10.292;2023-06-24T11:08:11;101956.47;;;27.30
65316;BMP280;51920;53.952;10.292;2023-06-24T11:10:46;101968.38;;;27.30
65316;BMP280;51920;53.952;10.292;2023-06-24T11:13:13;101950.16;;;27.29
65316;BMP280;51920;53.952;10.292;2023-06-24T11:15:40;101966.41;;;27.46
65316;BMP280;51920;53.952;10.292;2023-06-24T11:18:10;101954.72;;;27.18
65316;BMP280;51920;53.952;10.292;2023-06-24T11:20:40;101951.00;;;27.36
65316;BMP280;51920;53.952;10.292;2023-06-24T11:23:08;101925.63;;;26.95
65316;BMP280;51920;53.952;10.292;2023-06-24T11:25:41;101952.66;;;27.27
65316;BMP280;51920;53.952;10.292;2023-06-24T11:28:18;101953.81;;;27.74
65316;BMP280;51920;53.952;10.292;2023-06-24T11:30:47;101943.94;;;28.03
65316;BMP280;51920;53.952;10.292;2023-06-24T11:33:28;101941.91;;;27.89
65316;BMP280;51920;53.952;10.292;2023-06-24T11:35:55;101935.22;;;27.57
65316;BMP280;51920;53.952;10.292;2023-06-24T11:38:22;101938.50;;;27.55
65316;BMP280;51920;53.952;10.292;2023-06-24T11:40:49;101939.13;;;27.59
65316;BMP280;51920;53.952;10.292;2023-06-24T11:43:16;101940.13;;;27.23
65316;BMP280;51920;53.952;10.292;2023-06-24T11:45:43;101945.34;;;27.30
65316;BMP280;51920;53.952;10.292;2023-06-24T11:48:09;101944.34;;;27.57
65316;BMP280;51920;53.952;10.292;2023-06-24T11:50:36;101942.63;;;27.21
65316;BMP280;51920;53.952;10.292;2023-06-24T11:53:04;101942.50;;;27.15
65316;BMP280;51920;53.952;10.292;2023-06-24T11:55:31;101938.84;;;27.33
65316;BMP280;51920;53.952;10.292;2023-06-24T11:58:00;101943.03;;;27.04
65316;BMP280;51920;53.952;10.292;2023-06-24T12:00:38;101935.84;;;26.89
65316;BMP280;51920;53.952;10.292;2023-06-24T12:03:06;101935.66;;;26.68
65316;BMP280;51920;53.952;10.292;2023-06-24T12:05:36;101934.94;;;26.83
65316;BMP280;51920;53.952;10.292;2023-06-24T12:08:05;101934.09;;;26.67
65316;BMP280;51920;53.952;10.292;2023-06-24T12:10:36;101934.41;;;26.60
65316;BMP280;51920;53.952;10.292;2023-06-24T12:13:04;101932.75;;;26.53
65316;BMP280;51920;53.952;10.292;2023-06-24T12:15:32;101929.66;;;26.61
65316;BMP280;51920;53.952;10.292;2023-06-24T12:18:00;101931.34;;;26.58
65316;BMP280;51920;53.952;10.292;2023-06-24T12:20:29;101940.59;;;26.64
65316;BMP280;51920;53.952;10.292;2023-06-24T12:22:58;101941.81;;;26.63
65316;BMP280;51920;53.952;10.292;2023-06-24T12:25:27;101925.59;;;26.28
65316;BMP280;51920;53.952;10.292;2023-06-24T12:27:55;101926.53;;;26.25
65316;BMP280;51920;53.952;10.292;2023-06-24T12:30:22;101931.59;;;26.18
65316;BMP280;51920;53.952;10.292;2023-06-24T12:32:52;101924.50;;;26.17
65316;BMP280;51920;53.952;10.292;2023-06-24T12:35:19;101921.53;;;26.48
65316;BMP280;51920;53.952;10.292;2023-06-24T12:37:46;101927.50;;;26.89
65316;BMP280;51920;53.952;10.292;2023-06-24T12:40:14;101922.06;;;27.18
65316;BMP280;51920;53.952;10.292;2023-06-24T12:42:40;101922.41;;;27.35
65316;BMP280;51920;53.952;10.292;2023-06-24T12:45:07;101920.84;;;27.43
65316;BMP280;51920;53.952;10.292;2023-06-24T12:47:34;101923.72;;;27.49
65316;BMP280;51920;53.952;10.292;2023-06-24T12:50:01;101921.63;;;27.59
65316;BMP280;51920;53.952;10.292;2023-06-24T12:52:34;101910.00;;;26.97
65316;BMP280;51920;53.952;10.292;2023-06-24T12:55:01;101909.03;;;27.00
65316;BMP280;51920;53.952;10.292;2023-06-24T12:57:27;101915.22;;;27.04
65316;BMP280;51920;53.952;10.292;2023-06-24T12:59:54;101907.44;;;26.85
65316;BMP280;51920;53.952;10.292;2023-06-24T13:02:21;101908.41;;;26.82
65316;BMP280;51920;53.952;10.292;2023-06-24T13:04:48;101907.13;;;26.83
65316;BMP280;51920;53.952;10.292;2023-06-24T13:07:15;101923.06;;;26.49
65316;BMP280;51920;53.952;10.292;2023-06-24T13:09:42;101920.13;;;26.43
65316;BMP280;51920;53.952;10.292;2023-06-24T13:12:09;101917.91;;;26.56
65316;BMP280;51920;53.952;10.292;2023-06-24T13:14:37;101912.97;;;26.61
65316;BMP280;51920;53.952;10.292;2023-06-24T13:17:04;101914.59;;;26.76
65316;BMP280;51920;53.952;10.292;2023-06-24T13:19:30;101919.63;;;26.54
65316;BMP280;51920;53.952;10.292;2023-06-24T13:21:59;101923.13;;;26.64
65316;BMP280;51920;53.952;10.292;2023-06-24T13:24:26;101918.31;;;26.73
65316;BMP280;51920;53.952;10.292;2023-06-24T13:26:53;101922.34;;;26.63
65316;BMP280;51920;53.952;10.292;2023-06-24T13:29:19;101916.94;;;26.69
65316;BMP280;51920;53.952;10.292;2023-06-24T13:31:47;101918.03;;;26.71
65316;BMP280;51920;53.952;10.292;2023-06-24T13:34:13;101915.19;;;26.80
65316;BMP280;51920;53.952;10.292;2023-06-24T13:36:40;101910.22;;;26.85
65316;BMP280;51920;53.952;10.292;2023-06-24T13:39:08;101905.69;;;26.96
65316;BMP280;51920;53.952;10.292;2023-06-24T13:41:38;101901.50;;;27.01
65316;BMP280;51920;53.952;10.292;2023-06-24T13:44:05;101900.19;;;26.87
65316;BMP280;51920;53.952;10.292;2023-06-24T13:46:32;101900.84;;;26.73
65316;BMP280;51920;53.952;10.292;2023-06-24T13:48:59;101898.78;;;26.59
65316;BMP280;51920;53.952;10.292;2023-06-24T13:51:28;101893.44;;;26.37
65316;BMP280;51920;53.952;10.292;2023-06-24T13:53:55;101899.56;;;26.50
65316;BMP280;51920;53.952;10.292;2023-06-24T13:56:23;101895.50;;;26.60
65316;BMP280;51920;53.952;10.292;2023-06-24T13:58:51;101891.06;;;26.87
65316;BMP280;51920;53.952;10.292;2023-06-24T14:01:18;101897.06;;;26.61
65316;BMP280;51920;53.952;10.292;2023-06-24T14:03:45;101896.00;;;26.83
65316;BMP280;51920;53.952;10.292;2023-06-24T14:06:17;101892.72;;;26.93
65316;BMP280;51920;53.952;10.292;2023-06-24T14:08:44;101897.69;;;26.56
65316;BMP280;51920;53.952;10.292;2023-06-24T14:11:11;101896.13;;;26.64
65316;BMP280;51920;53.952;10.292;2023-06-24T14:13:39;101890.44;;;26.59
65316;BMP280;51920;53.952;10.292;2023-06-24T14:16:06;101885.84;;;26.46
65316;BMP280;51920;53.952;10.292;2023-06-24T14:18:34;101891.94;;;26.60
65316;BMP280;51920;53.952;10.292;2023-06-24T14:21:02;101881.22;;;26.76
65316;BMP280;51920;53.952;10.292;2023-06-24T14:23:30;101887.38;;;26.80
65316;BMP280;51920;53.952;10.292;2023-06-24T14:25:57;101887.31;;;26.90
65316;BMP280;51920;53.952;10.292;2023-06-24T14:28:27;101889.47;;;26.71
65316;BMP280;51920;53.952;10.292;2023-06-24T14:30:53;101888.94;;;26.72